createdAt,value
2023-04-19T00:01:25.739Z,50.02
2023-04-19T00:04:13.395Z,50.02
2023-04-19T00:07:00.986Z,49.95
2023-04-19T00:09:48.373Z,50.14
2023-04-19T00:12:35.695Z,50.02
2023-04-19T00:15:23.066Z,50.22
2023-04-19T00:18:10.459Z,50.26
2023-04-19T00:20:57.836Z,50.23
2023-04-19T00:23:45.218Z,50.19
2023-04-19T00:26:32.541Z,50.27
2023-04-19T00:29:19.879Z,50.37
2023-04-19T00:32:07.217Z,50.30
2023-04-19T00:34:54.545Z,50.33
2023-04-19T00:37:41.852Z,50.32
2023-04-19T00:40:29.173Z,50.18
2023-04-19T00:43:16.523Z,50.19
2023-04-19T00:46:03.957Z,50.12
2023-04-19T00:48:51.303Z,50.19
2023-04-19T00:51:38.631Z,50.39
2023-04-19T00:54:25.932Z,50.39
2023-04-19T00:57:13.280Z,50.30
2023-04-19T01:00:00.646Z,50.33
2023-04-19T01:02:48.244Z,50.59
2023-04-19T01:05:35.668Z,50.36
2023-04-19T01:08:23.003Z,50.49
2023-04-19T01:11:10.353Z,50.46
2023-04-19T01:13:57.741Z,50.40
2023-04-19T01:16:45.063Z,50.34
2023-04-19T01:19:32.383Z,50.25
2023-04-19T01:22:19.731Z,50.33
2023-04-19T01:25:07.065Z,50.38
2023-04-19T01:27:54.405Z,50.25
2023-04-19T01:30:41.756Z,50.37
2023-04-19T01:33:29.076Z,50.17
2023-04-19T01:36:16.409Z,50.28
2023-04-19T01:39:04.184Z,50.46
2023-04-19T01:41:51.496Z,50.35
2023-04-19T01:44:38.819Z,50.45
2023-04-19T01:47:26.219Z,50.30
2023-04-19T01:50:13.585Z,50.42
2023-04-19T01:53:00.878Z,50.41
2023-04-19T01:55:48.214Z,50.41
2023-04-19T01:58:35.532Z,50.54
2023-04-19T02:01:22.952Z,50.52
2023-04-19T02:04:10.359Z,50.60
2023-04-19T02:06:57.703Z,50.50
2023-04-19T02:09:44.989Z,50.59
2023-04-19T02:12:32.354Z,50.60
2023-04-19T02:15:19.636Z,50.50
2023-04-19T02:18:07.082Z,50.69
2023-04-19T02:20:54.647Z,50.66
2023-04-19T02:23:41.969Z,50.75
2023-04-19T02:26:29.322Z,50.63
2023-04-19T02:29:16.676Z,50.64
2023-04-19T02:32:04.046Z,50.68
2023-04-19T02:34:51.329Z,50.68
2023-04-19T02:37:38.646Z,50.63
2023-04-19T02:40:25.978Z,50.63
2023-04-19T02:43:13.515Z,50.66
2023-04-19T02:46:00.874Z,50.59
2023-04-19T02:48:48.205Z,50.59
2023-04-19T02:51:35.528Z,50.58
2023-04-19T02:54:22.847Z,50.54
2023-04-19T02:57:10.145Z,50.47
2023-04-19T02:59:57.452Z,50.54
2023-04-19T03:02:44.873Z,50.53
2023-04-19T03:05:32.361Z,50.57
2023-04-19T03:08:19.657Z,50.51
2023-04-19T03:11:06.961Z,50.48
2023-04-19T03:13:54.281Z,50.50
2023-04-19T03:16:41.631Z,50.36
2023-04-19T03:19:28.927Z,50.50
2023-04-19T03:22:16.245Z,50.41
2023-04-19T03:25:03.566Z,50.43
2023-04-19T03:27:50.893Z,50.40
2023-04-19T03:30:38.205Z,50.41
2023-04-19T03:33:25.549Z,50.21
2023-04-19T03:36:12.870Z,50.26
2023-04-19T03:39:00.225Z,50.35
2023-04-19T03:41:47.554Z,50.49
2023-04-19T03:44:34.927Z,50.29
2023-04-19T03:47:22.298Z,50.43
2023-04-19T03:50:09.636Z,50.25
2023-04-19T03:52:56.956Z,50.49
2023-04-19T03:55:44.315Z,50.46
2023-04-19T03:58:31.663Z,50.40
2023-04-19T04:01:19.015Z,50.37
2023-04-19T04:04:06.494Z,50.45
2023-04-19T04:06:54.090Z,50.51
2023-04-19T04:09:41.429Z,50.60
2023-04-19T04:12:28.760Z,50.61
2023-04-19T04:15:16.063Z,50.48
2023-04-19T04:18:03.500Z,50.55
2023-04-19T04:20:50.853Z,50.74
2023-04-19T04:23:38.457Z,50.85
2023-04-19T04:26:25.775Z,50.77
2023-04-19T04:29:13.138Z,50.80
2023-04-19T04:32:00.539Z,50.71
2023-04-19T04:34:47.916Z,50.78
2023-04-19T04:37:35.244Z,51.00
2023-04-19T04:40:22.597Z,51.04
2023-04-19T04:43:09.953Z,51.27
2023-04-19T04:45:57.382Z,51.48
2023-04-19T04:48:44.731Z,51.26
2023-04-19T04:51:32.416Z,51.50
2023-04-19T04:54:19.842Z,51.82
2023-04-19T04:57:07.224Z,52.04
2023-04-19T04:59:54.598Z,52.25
2023-04-19T05:02:42.010Z,52.50
2023-04-19T05:05:29.404Z,52.44
2023-04-19T05:08:16.740Z,52.36
2023-04-19T05:11:04.051Z,52.34
2023-04-19T05:13:51.383Z,52.31
2023-04-19T05:16:38.716Z,52.32
2023-04-19T05:19:26.044Z,52.18
2023-04-19T05:22:13.343Z,51.93
2023-04-19T05:25:00.760Z,51.71
2023-04-19T05:27:48.174Z,51.44
2023-04-19T05:30:35.546Z,51.26
2023-04-19T05:33:22.869Z,51.38
2023-04-19T05:36:10.222Z,51.61
2023-04-19T05:38:57.542Z,51.74
2023-04-19T05:41:44.909Z,52.02
2023-04-19T05:44:32.194Z,52.06
2023-04-19T05:47:19.973Z,51.96
2023-04-19T05:50:07.312Z,51.99
2023-04-19T05:52:54.623Z,52.02
2023-04-19T05:55:41.980Z,52.04
2023-04-19T05:58:29.336Z,51.91
2023-04-19T06:01:16.699Z,51.93
2023-04-19T06:04:04.290Z,52.27
2023-04-19T06:06:52.266Z,52.63
2023-04-19T06:09:39.572Z,52.92
2023-04-19T06:12:26.948Z,53.07
2023-04-19T06:15:14.294Z,53.38
2023-04-19T06:18:01.762Z,53.82
2023-04-19T06:20:49.114Z,53.72
2023-04-19T06:23:36.442Z,54.02
2023-04-19T06:26:23.803Z,54.16
2023-04-19T06:29:11.128Z,54.18
2023-04-19T06:31:58.569Z,54.25
2023-04-19T06:34:45.940Z,54.36
2023-04-19T06:37:33.278Z,54.41
2023-04-19T06:40:20.618Z,54.58
2023-04-19T06:43:07.981Z,54.56
2023-04-19T06:45:55.338Z,54.74
2023-04-19T06:48:42.897Z,54.82
2023-04-19T06:51:30.226Z,54.74
2023-04-19T06:54:17.951Z,54.62
2023-04-19T06:57:05.419Z,54.55
2023-04-19T06:59:52.771Z,54.83
2023-04-19T07:02:40.310Z,54.56
2023-04-19T07:05:27.835Z,54.44
2023-04-19T07:08:15.145Z,54.52
2023-04-19T07:11:02.460Z,54.54
2023-04-19T07:13:49.786Z,54.35
2023-04-19T07:16:37.155Z,54.31
2023-04-19T07:19:24.428Z,54.19
2023-04-19T07:22:13.665Z,54.07
2023-04-19T07:25:01.996Z,54.22
2023-04-19T07:27:49.583Z,54.00
2023-04-19T07:30:36.907Z,53.97
2023-04-19T07:33:25.923Z,53.58
2023-04-19T07:36:15.224Z,53.69
2023-04-19T07:39:02.590Z,53.67
2023-04-19T07:41:49.895Z,53.55
2023-04-19T07:44:37.278Z,53.67
2023-04-19T07:47:24.634Z,53.49
2023-04-19T07:50:11.976Z,53.66
2023-04-19T07:52:59.670Z,53.71
2023-04-19T07:55:47.015Z,53.70
2023-04-19T07:58:34.384Z,53.89
2023-04-19T08:01:21.760Z,53.85
2023-04-19T08:04:09.346Z,53.91
2023-04-19T08:06:56.853Z,53.85
2023-04-19T08:09:44.219Z,53.94
2023-04-19T08:12:38.347Z,54.00
2023-04-19T08:16:12.996Z,54.12
2023-04-19T08:18:37.796Z,54.02
2023-04-19T08:21:34.431Z,54.11
2023-04-19T08:24:27.733Z,53.96
2023-04-19T08:27:15.095Z,53.79
2023-04-19T08:30:02.415Z,53.75
2023-04-19T08:32:49.830Z,53.74
2023-04-19T08:35:37.210Z,53.87
2023-04-19T08:38:24.532Z,53.81
2023-04-19T08:41:11.862Z,54.07
2023-04-19T08:43:59.235Z,54.15
2023-04-19T08:46:46.573Z,54.11
2023-04-19T08:49:33.903Z,54.47
2023-04-19T08:52:21.174Z,54.66
2023-04-19T08:55:08.534Z,54.68
2023-04-19T08:57:55.871Z,54.97
2023-04-19T09:00:43.195Z,55.04
2023-04-19T09:03:30.726Z,55.15
2023-04-19T09:06:18.610Z,55.31
2023-04-19T09:09:06.738Z,55.42
2023-04-19T09:11:54.131Z,55.54
2023-04-19T09:14:45.030Z,55.28
2023-04-19T09:17:34.888Z,55.42
2023-04-19T09:20:22.435Z,55.12
2023-04-19T09:23:09.929Z,55.08
2023-04-19T09:26:19.338Z,55.03
2023-04-19T09:29:04.574Z,54.95
2023-04-19T09:31:52.478Z,54.83
2023-04-19T09:34:39.932Z,55.04
2023-04-19T09:40:17.533Z,54.57
2023-04-19T09:43:17.992Z,54.76
2023-04-19T09:46:12.162Z,54.88
2023-04-19T09:49:00.266Z,54.79
2023-04-19T09:51:49.317Z,54.85
2023-04-19T09:54:36.623Z,54.88
2023-04-19T09:57:23.970Z,54.92
2023-04-19T10:00:11.313Z,55.02
2023-04-19T10:02:58.902Z,55.22
2023-04-19T10:05:46.438Z,55.09
2023-04-19T10:08:33.900Z,54.96
2023-04-19T10:11:21.228Z,54.87
2023-04-19T10:14:08.591Z,54.76
2023-04-19T10:16:55.963Z,54.52
2023-04-19T10:19:43.755Z,54.59
2023-04-19T10:22:31.058Z,54.58
2023-04-19T10:25:18.362Z,54.55
2023-04-19T10:28:05.716Z,54.43
2023-04-19T10:30:53.089Z,54.49
2023-04-19T10:33:40.464Z,54.38
2023-04-19T10:36:27.811Z,54.26
2023-04-19T10:39:15.358Z,54.28
2023-04-19T10:42:02.830Z,53.93
2023-04-19T10:44:50.191Z,54.03
2023-04-19T10:47:37.579Z,54.02
2023-04-19T10:50:24.956Z,53.89
2023-04-19T10:53:13.835Z,54.04
2023-04-19T10:56:01.557Z,53.83
2023-04-19T10:58:48.903Z,53.86
2023-04-19T11:01:36.285Z,54.07
2023-04-19T11:04:23.753Z,53.95
2023-04-19T11:07:11.295Z,53.89
2023-04-19T11:09:58.619Z,54.11
2023-04-19T11:12:46.010Z,53.80
2023-04-19T11:15:33.430Z,53.75
2023-04-19T11:18:20.893Z,53.89
2023-04-19T11:21:08.308Z,53.84
2023-04-19T11:23:55.590Z,53.78
2023-04-19T11:26:42.933Z,53.54
2023-04-19T11:29:30.249Z,53.53
2023-04-19T11:32:17.593Z,53.49
2023-04-19T11:35:04.918Z,53.46
2023-04-19T11:37:52.247Z,53.36
2023-04-19T11:40:39.693Z,53.31
2023-04-19T11:43:27.036Z,53.28
2023-04-19T11:46:14.385Z,53.43
2023-04-19T11:49:01.741Z,53.35
2023-04-19T11:51:49.046Z,53.09
2023-04-19T11:54:36.405Z,53.20
2023-04-19T11:57:23.722Z,53.24
2023-04-19T12:00:11.095Z,53.15
2023-04-19T12:02:58.685Z,53.15
2023-04-19T12:05:46.416Z,53.11
2023-04-19T12:08:33.797Z,52.98
2023-04-19T12:11:21.122Z,52.98
2023-04-19T12:14:08.446Z,53.03
2023-04-19T12:16:55.858Z,53.18
2023-04-19T12:19:43.224Z,52.92
2023-04-19T12:22:30.600Z,52.98
2023-04-19T12:25:17.928Z,52.94
2023-04-19T12:28:05.312Z,52.88
2023-04-19T12:30:52.740Z,52.79
2023-04-19T12:33:40.092Z,52.68
2023-04-19T12:36:27.398Z,52.61
2023-04-19T12:39:14.945Z,52.83
2023-04-19T12:42:02.432Z,52.78
2023-04-19T12:44:49.808Z,52.88
2023-04-19T12:47:37.164Z,52.94
2023-04-19T12:50:24.537Z,52.75
2023-04-19T12:53:11.916Z,52.92
2023-04-19T12:55:59.247Z,52.92
2023-04-19T12:58:46.565Z,52.96
2023-04-19T13:01:33.988Z,53.05
2023-04-19T13:04:21.579Z,53.02
2023-04-19T13:07:09.221Z,53.15
2023-04-19T13:09:57.085Z,53.15
2023-04-19T13:12:44.509Z,53.17
2023-04-19T13:15:31.863Z,53.39
2023-04-19T13:18:19.186Z,53.37
2023-04-19T13:21:08.342Z,53.30
2023-04-19T13:23:56.073Z,52.98
2023-04-19T13:26:43.427Z,52.26
2023-04-19T13:29:30.768Z,52.14
2023-04-19T13:32:18.114Z,51.68
2023-04-19T13:35:05.483Z,51.23
2023-04-19T13:37:52.805Z,50.85
2023-04-19T13:40:40.183Z,50.30
2023-04-19T13:43:27.533Z,50.23
2023-04-19T13:46:14.944Z,49.51
2023-04-19T13:49:02.267Z,49.43
2023-04-19T13:51:51.027Z,49.07
2023-04-19T13:54:38.500Z,48.64
2023-04-19T13:57:25.811Z,48.19
2023-04-19T14:00:13.125Z,47.99
2023-04-19T14:03:00.681Z,48.13
2023-04-19T14:05:48.108Z,47.35
2023-04-19T14:08:35.460Z,46.83
2023-04-19T14:11:22.817Z,46.20
2023-04-19T14:14:10.196Z,45.97
2023-04-19T14:16:57.522Z,45.53
2023-04-19T14:19:45.123Z,45.16
2023-04-19T14:22:32.470Z,44.70
2023-04-19T14:25:19.802Z,43.57
2023-04-19T14:28:07.094Z,42.32
2023-04-19T14:30:54.473Z,42.13
2023-04-19T14:33:41.807Z,42.95
2023-04-19T14:36:29.154Z,44.11
2023-04-19T14:39:16.620Z,44.94
2023-04-19T14:42:04.129Z,45.60
2023-04-19T14:44:51.469Z,45.96
2023-04-19T14:47:38.906Z,46.29
2023-04-19T14:50:26.287Z,46.38
2023-04-19T14:53:13.688Z,46.24
2023-04-19T14:56:00.994Z,46.53
2023-04-19T14:58:48.321Z,46.62
2023-04-19T15:01:35.671Z,46.42
2023-04-19T15:04:23.186Z,46.67
2023-04-19T15:07:11.087Z,46.85
2023-04-19T15:09:58.462Z,46.54
2023-04-19T15:12:45.786Z,45.94
2023-04-19T15:15:33.149Z,45.98
2023-04-19T15:18:20.622Z,46.24
2023-04-19T15:21:07.945Z,45.77
2023-04-19T15:23:55.253Z,45.88
2023-04-19T15:26:44.317Z,45.98
2023-04-19T15:29:31.938Z,45.71
2023-04-19T15:32:19.325Z,45.58
2023-04-19T15:35:06.685Z,45.70
2023-04-19T15:37:54.029Z,46.04
2023-04-19T15:40:41.361Z,45.66
2023-04-19T15:43:28.711Z,45.75
2023-04-19T15:46:16.163Z,45.48
2023-04-19T15:49:03.656Z,45.75
2023-04-19T15:51:50.967Z,45.91
2023-04-19T15:54:38.402Z,45.60
2023-04-19T15:57:25.726Z,45.57
2023-04-19T16:00:13.311Z,45.33
2023-04-19T16:03:00.786Z,45.42
2023-04-19T16:05:48.383Z,45.32
2023-04-19T16:08:35.697Z,45.07
2023-04-19T16:11:23.152Z,44.41
2023-04-19T16:14:10.530Z,44.03
2023-04-19T16:16:58.079Z,42.65
2023-04-19T16:19:45.480Z,41.24
2023-04-19T16:22:32.803Z,40.67
2023-04-19T16:25:20.186Z,39.51
2023-04-19T16:28:07.544Z,39.61
2023-04-19T16:30:54.850Z,39.22
2023-04-19T16:33:42.170Z,39.29
2023-04-19T16:36:29.517Z,38.93
2023-04-19T16:39:17.098Z,38.15
2023-04-19T16:42:04.584Z,38.04
2023-04-19T16:44:51.941Z,37.06
2023-04-19T16:47:39.279Z,37.22
2023-04-19T16:50:26.639Z,37.53
2023-04-19T16:53:14.516Z,37.67
2023-04-19T16:56:01.845Z,37.72
2023-04-19T16:58:49.158Z,38.32
2023-04-19T17:01:36.585Z,38.69
2023-04-19T17:04:24.161Z,39.32
2023-04-19T17:07:11.621Z,39.42
2023-04-19T17:09:58.964Z,39.98
2023-04-19T17:12:46.316Z,40.46
2023-04-19T17:15:33.657Z,40.82
2023-04-19T17:18:21.085Z,40.66
2023-04-19T17:21:08.427Z,40.87
2023-04-19T17:23:55.782Z,40.86
2023-04-19T17:26:43.120Z,40.97
2023-04-19T17:29:30.453Z,41.38
2023-04-19T17:32:17.762Z,41.22
2023-04-19T17:35:05.108Z,41.49
2023-04-19T17:37:52.450Z,41.20
2023-04-19T17:40:39.770Z,41.56
2023-04-19T17:43:27.171Z,41.88
2023-04-19T17:46:14.496Z,41.78
2023-04-19T17:49:01.838Z,41.82
2023-04-19T17:51:49.200Z,41.11
2023-04-19T17:54:36.514Z,40.90
2023-04-19T17:57:23.920Z,40.31
2023-04-19T18:00:11.225Z,40.55
2023-04-19T18:02:58.666Z,40.28
2023-04-19T18:05:46.018Z,40.48
2023-04-19T18:08:33.374Z,40.47
2023-04-19T18:11:20.668Z,40.43
2023-04-19T18:14:07.973Z,40.28
2023-04-19T18:16:55.313Z,40.04
2023-04-19T18:19:42.842Z,39.45
2023-04-19T18:22:30.152Z,39.03
2023-04-19T18:25:17.532Z,38.05
2023-04-19T18:28:04.897Z,38.03
2023-04-19T18:30:52.259Z,37.81
2023-04-19T18:33:39.597Z,37.80
2023-04-19T18:36:26.948Z,36.65
2023-04-19T18:39:14.515Z,37.13
2023-04-19T18:42:02.023Z,36.47
2023-04-19T18:44:54.325Z,36.38
2023-04-19T18:47:42.322Z,36.13
2023-04-19T18:50:29.702Z,36.27
2023-04-19T18:53:17.059Z,36.15
2023-04-19T18:56:04.393Z,36.10
2023-04-19T18:58:51.693Z,35.86
2023-04-19T19:01:39.078Z,36.13
2023-04-19T19:04:48.110Z,36.29
2023-04-19T19:07:36.691Z,35.92
2023-04-19T19:13:13.893Z,36.28
2023-04-19T19:16:01.257Z,36.02
2023-04-19T19:18:48.679Z,36.21
2023-04-19T19:21:36.018Z,36.23
2023-04-19T19:24:23.379Z,35.80
2023-04-19T19:27:10.700Z,36.01
2023-04-19T19:29:58.038Z,35.81
2023-04-19T19:32:45.962Z,36.24
2023-04-19T19:35:33.442Z,36.02
2023-04-19T19:38:20.947Z,36.08
2023-04-19T19:41:55.188Z,36.15
2023-04-19T19:44:15.584Z,36.29
2023-04-19T19:47:09.324Z,36.40
2023-04-19T19:52:48.007Z,36.24
2023-04-19T19:55:35.356Z,36.59
2023-04-19T19:58:46.220Z,36.48
2023-04-19T20:01:30.002Z,36.61
2023-04-19T20:04:17.460Z,36.61
2023-04-19T20:09:55.097Z,36.53
2023-04-19T20:12:42.473Z,36.42
2023-04-19T20:15:29.787Z,36.44
2023-04-19T20:18:17.146Z,36.84
2023-04-19T20:21:04.478Z,36.77
2023-04-19T20:23:51.808Z,36.50
2023-04-19T20:26:39.107Z,36.96
2023-04-19T20:29:26.423Z,36.85
2023-04-19T20:32:13.825Z,36.80
2023-04-19T20:35:01.250Z,36.74
2023-04-19T20:37:48.589Z,36.68
2023-04-19T20:40:36.135Z,36.67
2023-04-19T20:43:23.457Z,36.67
2023-04-19T20:46:10.817Z,36.74
2023-04-19T20:48:58.129Z,36.64
2023-04-19T20:51:45.595Z,36.73
2023-04-19T20:54:32.901Z,36.93
2023-04-19T20:57:20.240Z,36.72
2023-04-19T21:00:07.520Z,36.89
2023-04-19T21:02:55.043Z,36.98
2023-04-19T21:05:42.479Z,37.01
2023-04-19T21:08:29.797Z,37.02
2023-04-19T21:11:17.132Z,37.11
2023-04-19T21:14:04.434Z,37.16
2023-04-19T21:16:51.778Z,37.20
2023-04-19T21:19:39.103Z,37.34
2023-04-19T21:22:26.461Z,37.30
2023-04-19T21:25:13.850Z,37.25
2023-04-19T21:28:01.215Z,37.51
2023-04-19T21:30:48.502Z,37.49
2023-04-19T21:33:35.900Z,37.33
2023-04-19T21:36:23.204Z,37.43
2023-04-19T21:39:10.501Z,37.63
2023-04-19T21:41:57.800Z,37.60
2023-04-19T21:44:45.308Z,37.43
2023-04-19T21:47:32.706Z,37.52
2023-04-19T21:50:20.027Z,37.46
2023-04-19T21:53:07.381Z,37.42
2023-04-19T21:55:54.703Z,37.48
2023-04-19T21:58:42.020Z,37.42
2023-04-19T22:01:29.423Z,37.67
2023-04-19T22:04:16.829Z,37.67
2023-04-19T22:07:04.149Z,37.65
2023-04-19T22:09:51.504Z,37.72
2023-04-19T22:12:47.986Z,37.62
2023-04-19T22:15:42.741Z,37.50
2023-04-19T22:18:30.133Z,37.60
2023-04-19T22:21:17.474Z,37.63
2023-04-19T22:24:04.864Z,37.71
2023-04-19T22:26:52.185Z,37.59
2023-04-19T22:29:39.550Z,37.86
2023-04-19T22:32:26.910Z,37.65
2023-04-19T22:35:14.284Z,37.77
2023-04-19T22:38:01.805Z,37.70
2023-04-19T22:40:49.154Z,37.64
2023-04-19T22:43:36.514Z,37.86
2023-04-19T22:46:23.856Z,37.70
2023-04-19T22:49:11.215Z,37.68
2023-04-19T22:51:58.577Z,37.63
2023-04-19T22:54:45.917Z,37.71
2023-04-19T22:57:33.296Z,37.83
2023-04-19T23:00:20.595Z,37.90
2023-04-19T23:03:07.939Z,37.88
2023-04-19T23:05:55.277Z,37.87
2023-04-19T23:08:42.577Z,37.84
2023-04-19T23:11:29.951Z,37.76
2023-04-19T23:14:17.282Z,37.80
2023-04-19T23:17:04.622Z,37.93
2023-04-19T23:19:52.005Z,37.88
2023-04-19T23:22:39.348Z,37.95
2023-04-19T23:25:26.667Z,38.25
2023-04-19T23:28:14.017Z,38.38
2023-04-19T23:31:01.368Z,38.58
2023-04-19T23:33:48.723Z,38.83
2023-04-19T23:36:36.052Z,39.20
2023-04-19T23:39:23.383Z,39.39
2023-04-19T23:42:10.751Z,39.53
2023-04-19T23:44:58.142Z,39.86
2023-04-19T23:47:45.509Z,39.92
2023-04-19T23:50:32.888Z,40.18
2023-04-19T23:53:20.253Z,40.42
2023-04-19T23:56:07.593Z,40.56
2023-04-19T23:58:54.915Z,40.73
